FW0859 Weather Reports


Display with metric or nautical units.
time (UTC)temp
F
wind
direction
speed
MPH
gust
MPH
rain 1hr
in
rain 24hr
in
rain mn
in
humidity
%
barometer
mb
20260906143006 89 38 0.0 3.0 0.00 0.00 0.00 68 1012.7
20260906141601 88 117 0.0 3.0 0.00 0.00 0.00 70 1012.8
20260906140105 86 128 1.0 3.0 0.00 0.00 0.00 73 1012.8
20260906134603 83 213 0.0 3.0 0.00 0.00 0.00 78 1012.9
20260906133046 80 113 0.0 1.0 0.00 0.00 0.00 82 1012.9
20260906131542 79 112 0.0 2.0 0.00 0.00 0.00 84 1012.9
20260906130042 77 113 0.0 0.0 0.00 0.00 0.00 88 1012.8
20260906124538 75 113 0.0 0.0 0.00 0.00 0.00 90 1012.8
20260906123037 73 113 0.0 0.0 0.00 0.00 0.00 92 1012.7
20260906121536 73 113 0.0 0.0 0.00 0.00 0.00 93 1012.4
20260906120035 72 113 0.0 0.0 0.00 0.00 0.00 93 1012.4
20260906114542 72 113 0.0 1.0 0.00 0.00 0.00 93 1012.0
20260906113032 72 112 1.0 3.0 0.00 0.00 0.00 93 1012.0
20260906111531 72 260 0.0 0.0 0.00 0.00 0.00 92 1011.8
20260906110030 72 260 0.0 0.0 0.00 0.00 0.00 92 1011.4
20260906104528 73 260 0.0 0.0 0.00 0.00 0.00 92 1011.4
20260906103026 73 260 0.0 0.0 0.00 0.00 0.00 92 1011.1
20260906101525 73 260 0.0 0.0 0.00 0.00 0.00 91 1011.4
20260906100028 73 260 0.0 0.0 0.00 0.00 0.00 91 1011.4
20260906094522 73 260 0.0 0.0 0.00 0.00 0.00 90 1011.3
20260906093021 74 260 0.0 0.0 0.00 0.00 0.00 90 1011.2
20260906091528 74 260 0.0 2.0 0.00 0.00 0.00 90 1011.2
20260906090021 74 260 0.0 0.0 0.00 0.00 0.00 90 1011.1
20260906084522 74 260 0.0 0.0 0.00 0.00 0.00 89 1011.1
20260906083018 74 260 0.0 0.0 0.00 0.00 0.00 89 1011.1
20260906081519 74 260 0.0 1.0 0.00 0.00 0.00 89 1011.0
20260906080016 74 260 0.0 0.0 0.00 0.00 0.00 89 1011.1
20260906074515 75 260 0.0 0.0 0.00 0.00 0.00 89 1011.1
20260906073017 75 260 0.0 0.0 0.00 0.00 0.00 88 1011.2
20260906071512 75 260 0.0 0.0 0.00 0.00 0.00 88 1011.3
20260906070012 75 260 0.0 1.0 0.00 0.00 0.00 87 1011.4
20260906064520 76 260 0.0 0.0 0.00 0.00 0.00 87 1011.4
20260906063010 76 259 0.0 0.0 0.00 0.00 0.00 87 1011.5
20260906061508 76 259 0.0 0.0 0.00 0.00 0.00 86 1011.5
20260906060007 76 259 0.0 0.0 0.00 0.00 0.00 84 1011.3
20260906054504 77 259 0.0 0.0 0.00 0.00 0.00 85 1011.3
20260906053002 77 259 0.0 0.0 0.00 0.00 0.00 84 1011.3
20260906051559 77 259 0.0 0.0 0.00 0.00 0.00 82 1011.2
20260906050111 78 259 0.0 0.0 0.00 0.00 0.00 82 1011.0
20260906044555 78 259 0.0 0.0 0.00 0.00 0.00 81 1010.9
20260906043057 79 259 0.0 0.0 0.00 0.00 0.00 80 1010.8
20260906041554 79 259 0.0 0.0 0.00 0.00 0.00 79 1010.9
20260906040054 80 259 0.0 0.0 0.00 0.00 0.00 78 1011.1
20260906034559 80 259 0.0 0.0 0.00 0.00 0.00 77 1011.2
20260906033053 81 259 0.0 0.0 0.00 0.00 0.00 78 1011.2
20260906031616 81 259 0.0 0.0 0.00 0.00 0.00 76 1011.3
20260906030052 82 259 0.0 0.0 0.00 0.00 0.00 75 1011.2
20260906024556 83 259 0.0 0.0 0.00 0.00 0.00 73 1011.1
20260906023106 84 259 0.0 0.0 0.00 0.00 0.00 72 1010.9
20260906021550 84 259 0.0 0.0 0.00 0.00 0.00 70 1010.6
20260906020056 85 260 0.0 7.0 0.00 0.00 0.00 69 1010.3
20260906014548 86 161 0.0 0.0 0.00 0.00 0.00 66 1010.1
20260906013047 88 161 0.0 0.0 0.00 0.00 0.00 65 1009.9
20260906011552 89 161 0.0 0.0 0.00 0.00 0.00 62 1009.7
20260906010047 91 161 0.0 1.0 0.00 0.00 0.00 59 1009.6
20260906004553 94 161 0.0 1.0 0.00 0.00 0.00 55 1009.5
20260906003050 95 161 0.0 1.0 0.00 0.00 0.00 52 1009.4
20260906001546 96 161 0.0 2.0 0.00 0.00 0.00 50 1009.6
20260906000047 97 133 0.0 6.0 0.00 0.00 0.00 48 1009.6
20260905234544 98 209 1.0 5.0 0.00 0.00 0.00 48 1009.5
20260905233049 98 165 2.0 8.0 0.00 0.00 0.00 46 1009.5
20260905231542 99 155 0.0 8.0 0.00 0.00 0.00 46 1009.4
20260905230042 100 161 2.0 9.0 0.00 0.00 0.00 45 1009.5
20260905224541 101 142 2.0 10.0 0.00 0.00 0.00 42 1009.3
20260905223040 103 127 2.0 4.0 0.00 0.00 0.00 36 1009.0
20260905221551 103 157 1.0 8.0 0.00 0.00 0.00 36 1008.9
20260905220040 104 134 2.0 9.0 0.00 0.00 0.00 35 1008.9
20260905214538 103 41 0.0 5.0 0.00 0.00 0.00 36 1008.9
20260905213037 103 155 1.0 6.0 0.00 0.00 0.00 36 1009.0
20260905211535 103 82 2.0 8.0 0.00 0.00 0.00 37 1009.2
20260905210033 104 83 1.0 6.0 0.00 0.00 0.00 37 1009.4
20260905204531 102 118 1.0 6.0 0.00 0.00 0.00 38 1009.6
20260905203028 102 69 2.0 10.0 0.00 0.00 0.00 37 1009.9
20260905201527 102 348 4.0 13.0 0.00 0.00 0.00 37 1010.2
20260905200028 103 88 3.0 8.0 0.00 0.00 0.00 37 1010.2
20260905194523 103 275 2.0 6.0 0.00 0.00 0.00 37 1010.5
20260905193019 102 340 5.0 10.0 0.00 0.00 0.00 38 1010.8
20260905191518 101 82 4.0 8.0 0.00 0.00 0.00 39 1011.1
20260905190026 101 44 6.0 10.0 0.00 0.00 0.00 40 1011.2
20260905184516 101 351 6.0 11.0 0.00 0.00 0.00 40 1011.3
20260905183016 101 47 3.0 5.0 0.00 0.00 0.00 40 1011.6
20260905181513 101 236 4.0 9.0 0.00 0.00 0.00 40 1011.6
20260905180009 99 38 2.0 12.0 0.00 0.00 0.00 41 1012.0
20260905174506 99 283 2.0 10.0 0.00 0.00 0.00 44 1012.1
20260905173124 98 58 1.0 10.0 0.00 0.00 0.00 44 1012.3
20260905171600 98 26 8.0 11.0 0.00 0.00 0.00 43 1012.7
20260905164601 97 315 8.0 13.0 0.00 0.00 0.00 46 1012.9
20260905163053 96 333 2.0 11.0 0.00 0.00 0.00 50 1012.9
20260905161554 97 330 5.0 11.0 0.00 0.00 0.00 49 1013.1
20260905160056 96 257 2.0 8.0 0.00 0.00 0.00 53 1013.3
20260905154550 95 309 0.0 7.0 0.00 0.00 0.00 54 1013.3
20260905153042 95 270 6.0 10.0 0.00 0.00 0.00 55 1013.4
20260905151539 94 286 4.0 8.0 0.00 0.00 0.00 57 1013.3
20260905150041 93 338 2.0 9.0 0.00 0.00 0.00 59 1013.4
20260905144533 91 293 2.0 6.0 0.00 0.00 0.00 63 1013.4